Time;durP1;ratioP1;P1;durP2;ratioP2;P2;SDS_P1;SDS_P2;PMS_P1;PMS_P2;Temp;Humidity;BMP_temperature;BMP_pressure;BME280_temperature;BME280_humidity;BME280_pressure;Samples;Min_cycle;Max_cycle;Signal;HPM_P1;HPM_P2
2024/02/22 00:03:07;;;;;;;18.38;14.18;;;;;;;11.83;100.00;101889.50;10464883;28;20052;-87
2024/02/22 00:08:32;;;;;;;17.48;14.10;;;;;;;11.73;100.00;101882.13;10450281;28;20558;-87
2024/02/22 00:13:55;;;;;;;18.05;13.38;;;;;;;11.52;100.00;101879.75;10436072;28;20053;-87
2024/02/22 00:19:17;;;;;;;19.33;14.63;;;;;;;11.35;100.00;101872.19;10457149;28;20063;-87
2024/02/22 00:24:43;;;;;;;18.73;14.15;;;;;;;11.33;100.00;101871.22;10455074;28;20134;-87
2024/02/22 00:30:12;;;;;;;18.30;13.93;;;;;;;11.13;100.00;101862.69;10478225;28;20056;-87
2024/02/22 00:35:36;;;;;;;18.38;13.68;;;;;;;11.00;100.00;101856.13;10463130;28;20052;-87
2024/02/22 00:41:04;;;;;;;17.83;14.25;;;;;;;10.82;100.00;101852.00;10449746;28;20067;-87
2024/02/22 00:46:30;;;;;;;19.55;14.48;;;;;;;10.68;100.00;101857.75;10435227;28;20056;-87
2024/02/22 00:51:57;;;;;;;18.30;14.75;;;;;;;10.58;100.00;101839.78;10436363;28;20455;-87
2024/02/22 00:57:35;;;;;;;21.40;16.45;;;;;;;10.56;100.00;101846.78;10435758;28;20060;-87
2024/02/22 01:03:00;;;;;;;20.10;14.88;;;;;;;10.57;100.00;101840.63;10449136;28;20071;-88
2024/02/22 01:08:24;;;;;;;27.02;19.08;;;;;;;10.56;100.00;101832.69;10463527;28;20056;-87
2024/02/22 01:13:52;;;;;;;20.05;13.88;;;;;;;10.48;100.00;101820.97;10460186;28;20064;-87
2024/02/22 01:19:19;;;;;;;17.00;14.50;;;;;;;10.39;100.00;101827.72;10446528;28;20052;-87
2024/02/22 01:24:41;;;;;;;16.10;13.93;;;;;;;10.28;100.00;101831.75;10462844;28;20079;-86
2024/02/22 01:30:12;;;;;;;19.20;15.07;;;;;;;10.29;100.00;101824.75;10434988;28;20053;-87
2024/02/22 01:35:41;;;;;;;18.10;13.98;;;;;;;10.24;100.00;101815.78;10439996;28;20111;-87
2024/02/22 01:41:06;;;;;;;19.17;16.38;;;;;;;10.26;100.00;101812.31;10442409;28;20056;-87
2024/02/22 01:46:33;;;;;;;21.17;15.35;;;;;;;10.12;100.00;101815.31;10435357;28;20107;-87
2024/02/22 01:52:01;;;;;;;21.00;15.80;;;;;;;10.26;100.00;101806.16;10483878;28;20047;-88
2024/02/22 01:57:24;;;;;;;19.88;15.38;;;;;;;10.25;100.00;101801.72;10441047;28;20081;-87
2024/02/22 02:02:50;;;;;;;19.30;15.35;;;;;;;10.14;100.00;101801.31;10454881;28;20135;-87
2024/02/22 02:08:13;;;;;;;18.48;14.32;;;;;;;10.25;100.00;101799.97;10454837;28;20115;-88
2024/02/22 02:13:38;;;;;;;19.23;14.88;;;;;;;10.23;100.00;101799.06;10481498;28;20057;-87
2024/02/22 02:19:11;;;;;;;18.40;15.95;;;;;;;10.07;100.00;101794.03;10453656;28;20049;-87
2024/02/22 02:24:40;;;;;;;22.30;16.20;;;;;;;9.99;100.00;101800.78;10481157;28;20048;-86
2024/02/22 02:30:04;;;;;;;;;;;;;;;10.01;100.00;101804.38;10454463;28;20133;-87
2024/02/22 02:35:28;;;;;;;20.30;15.90;;;;;;;10.05;100.00;101797.47;10440890;28;19969;-88
2024/02/22 02:40:51;;;;;;;19.23;15.48;;;;;;;10.05;100.00;101798.38;10481031;28;20051;-87
2024/02/22 02:46:16;;;;;;;20.40;16.25;;;;;;;10.05;100.00;101793.09;10439744;28;20049;-87
2024/02/22 02:51:41;;;;;;;22.23;17.63;;;;;;;10.02;100.00;101795.63;10453856;28;20049;-87
2024/02/22 02:57:07;;;;;;;22.00;17.83;;;;;;;9.92;100.00;101789.13;10453034;28;20085;-87
2024/02/22 03:02:33;;;;;;;21.63;17.27;;;;;;;9.85;100.00;101794.13;10435771;28;20556;-86
2024/02/22 03:07:56;;;;;;;22.45;17.75;;;;;;;9.81;100.00;101801.06;10439015;28;20056;-88
2024/02/22 03:13:18;;;;;;;23.35;18.77;;;;;;;9.78;100.00;101798.31;10438313;28;20050;-86
2024/02/22 03:18:45;;;;;;;46.55;41.78;;;;;;;9.84;100.00;101798.53;10466059;28;20407;-86
2024/02/22 03:24:08;;;;;;;66.78;59.92;;;;;;;9.90;100.00;101804.03;10480410;28;20045;-86
2024/02/22 03:29:33;;;;;;;60.92;50.28;;;;;;;9.83;100.00;101802.03;10437900;28;20056;-87
2024/02/22 03:35:00;;;;;;;26.67;22.00;;;;;;;9.76;100.00;101805.28;10451760;28;20556;-87
2024/02/22 03:40:24;;;;;;;;;;;;;;;9.82;100.00;101815.16;10452139;28;20056;-86
2024/02/22 03:45:47;;;;;;;23.45;18.92;;;;;;;9.77;100.00;101811.47;10452171;28;19927;-87
2024/02/22 03:51:18;;;;;;;23.13;18.70;;;;;;;9.65;100.00;101811.88;10437447;28;20048;-87
2024/02/22 03:56:42;;;;;;;23.35;18.30;;;;;;;9.58;100.00;101809.91;10437313;28;20049;-87
2024/02/22 04:02:06;;;;;;;23.73;18.55;;;;;;;9.70;100.00;101815.63;10437196;28;20073;-87
2024/02/22 04:07:32;;;;;;;24.98;17.85;;;;;;;9.63;100.00;101817.97;10479907;28;20080;-85
2024/02/22 04:12:56;;;;;;;20.23;16.67;;;;;;;9.63;100.00;101816.22;10477320;28;20063;-87
2024/02/22 04:18:19;;;;;;;25.40;17.60;;;;;;;9.72;100.00;101826.19;10448922;28;20049;-87
2024/02/22 04:23:43;;;;;;;23.40;17.55;;;;;;;9.66;100.00;101818.06;10449583;28;20458;-87
2024/02/22 04:29:05;;;;;;;24.80;18.38;;;;;;;9.62;100.00;101830.25;10435395;28;20056;-87
2024/02/22 04:34:29;;;;;;;24.83;18.55;;;;;;;9.69;100.00;101844.56;10435895;28;20083;-87
2024/02/22 04:39:53;;;;;;;22.40;17.70;;;;;;;9.73;100.00;101842.06;10445598;28;20084;-86
2024/02/22 04:45:16;;;;;;;26.02;19.08;;;;;;;9.73;100.00;101835.91;10461929;28;20056;-87
2024/02/22 04:50:43;;;;;;;28.33;20.98;;;;;;;9.92;100.00;101833.06;10462743;28;20053;-86
2024/02/22 04:56:13;;;;;;;41.33;30.98;;;;;;;10.12;100.00;101837.31;10477723;28;20053;-86
2024/02/22 05:01:37;;;;;;;26.52;19.45;;;;;;;10.11;100.00;101840.78;10432954;28;20049;-87
2024/02/22 05:06:59;;;;;;;21.52;17.77;;;;;;;10.13;100.00;101848.75;10467065;28;20068;-86
2024/02/22 05:12:27;;;;;;;26.05;19.13;;;;;;;10.17;100.00;101841.06;10455820;28;20571;-87
2024/02/22 05:17:50;;;;;;;21.88;18.02;;;;;;;10.36;100.00;101853.13;10484647;28;20049;-87
2024/02/22 05:23:16;;;;;;;27.75;20.20;;;;;;;10.53;100.00;101854.59;10473152;28;20041;-87
2024/02/22 05:28:41;;;;;;;23.63;19.08;;;;;;;10.62;100.00;101859.28;10456198;28;20426;-87
2024/02/22 05:34:04;;;;;;;17.88;15.45;;;;;;;10.70;100.00;101865.69;10444015;28;20048;-87
2024/02/22 05:39:26;;;;;;;18.73;14.18;;;;;;;11.77;100.00;101864.63;10436659;28;20131;-88
2024/02/22 05:44:50;;;;;;;19.00;14.57;;;;;;;14.42;100.00;101859.34;10456106;28;20045;-87
2024/02/22 05:50:13;;;;;;;23.05;14.65;;;;;;;16.38;100.00;101870.03;10455806;28;20516;-87
2024/02/22 05:55:36;;;;;;;15.07;12.93;;;;;;;18.01;100.00;101857.75;10441942;28;20045;-87
2024/02/22 06:01:01;;;;;;;13.73;11.55;;;;;;;19.35;90.26;101864.06;10468758;28;20056;-87
2024/02/22 06:06:23;;;;;;;12.65;11.20;;;;;;;19.95;82.21;101860.28;10453355;28;20052;-88
2024/02/22 06:11:48;;;;;;;12.20;10.55;;;;;;;20.49;73.52;101859.03;10441689;28;20068;-88
2024/02/22 06:17:14;;;;;;;13.25;10.45;;;;;;;20.76;72.07;101860.59;10426115;28;20059;-87
2024/02/22 06:22:40;;;;;;;13.93;10.40;;;;;;;22.15;62.83;101858.16;10441035;28;20053;-88
2024/02/22 06:28:03;;;;;;;11.40;9.57;;;;;;;23.70;55.20;101858.09;10466257;28;20655;-90
2024/02/22 06:33:28;;;;;;;13.18;10.55;;;;;;;24.84;50.27;101868.97;10438804;28;20073;-89
2024/02/22 06:38:52;;;;;;;12.35;9.30;;;;;;;25.61;47.31;101870.50;10466146;28;20110;-89
2024/02/22 06:44:15;;;;;;;12.27;9.43;;;;;;;26.50;44.89;101869.59;10454197;28;20505;-90
2024/02/22 06:49:39;;;;;;;12.68;9.02;;;;;;;27.35;42.83;101858.53;10433085;28;20045;-88
2024/02/22 06:55:01;;;;;;;12.05;9.45;;;;;;;28.03;40.86;101874.03;10468453;28;20045;-91
2024/02/22 07:00:25;;;;;;;10.52;9.15;;;;;;;28.15;39.64;101879.06;10465833;28;20132;-90
2024/02/22 07:05:50;;;;;;;10.45;8.70;;;;;;;28.66;37.28;101881.47;10461065;28;20134;-91
2024/02/22 07:11:13;;;;;;;11.15;9.77;;;;;;;28.73;35.75;101879.38;10455613;28;20059;-87
2024/02/22 07:16:36;;;;;;;11.88;9.82;;;;;;;28.52;35.97;101883.88;10493486;28;20498;-88
2024/02/22 07:22:00;;;;;;;11.88;10.77;;;;;;;29.23;34.25;101875.38;10437832;28;20056;-87
2024/02/22 07:27:25;;;;;;;10.63;8.45;;;;;;;30.16;32.95;101883.88;10450752;28;20045;-89
2024/02/22 07:32:48;;;;;;;13.82;12.43;;;;;;;30.65;32.04;101875.09;10452728;28;20041;-89
2024/02/22 07:38:13;;;;;;;10.82;8.77;;;;;;;30.18;32.11;101884.69;10452228;28;20060;-89
2024/02/22 07:43:36;;;;;;;13.70;12.30;;;;;;;30.57;31.74;101882.75;10438525;28;20056;-88
2024/02/22 07:48:59;;;;;;;11.32;9.13;;;;;;;31.32;30.40;101884.34;10480236;28;20437;-88
2024/02/22 07:54:23;;;;;;;12.65;8.88;;;;;;;31.50;30.35;101884.28;10429810;28;20056;-89
2024/02/22 07:59:46;;;;;;;12.10;8.82;;;;;;;32.39;29.00;101888.44;10401983;28;20053;-89
2024/02/22 08:05:09;;;;;;;11.13;8.38;;;;;;;33.05;28.19;101880.00;10444995;28;20372;-89
2024/02/22 08:10:33;;;;;;;11.82;9.48;;;;;;;33.32;27.18;101875.59;10450645;28;20128;-88
2024/02/22 08:16:03;;;;;;;10.38;8.05;;;;;;;34.17;26.92;101867.41;10503528;28;20498;-89
2024/02/22 08:21:26;;;;;;;9.98;8.38;;;;;;;34.90;25.91;101869.88;10476653;28;20048;-89
2024/02/22 08:26:51;;;;;;;11.57;9.93;;;;;;;34.15;26.29;101861.13;10450108;28;20041;-90
2024/02/22 08:32:14;;;;;;;10.40;8.82;;;;;;;34.82;25.69;101864.91;10436463;28;20079;-90
2024/02/22 08:37:36;;;;;;;10.98;7.40;;;;;;;34.71;25.56;101860.16;10463593;28;20098;-90
2024/02/22 08:43:00;;;;;;;10.48;8.73;;;;;;;35.26;25.43;101860.97;10463697;28;20052;-90
2024/02/22 08:48:23;;;;;;;10.55;9.32;;;;;;;34.00;25.78;101857.53;10450872;28;20445;-90
2024/02/22 08:53:45;;;;;;;8.38;7.35;;;;;;;31.22;28.80;101860.31;10463537;28;20061;-89
2024/02/22 08:59:09;;;;;;;12.57;7.80;;;;;;;32.14;27.39;101864.38;10477873;28;20099;-90
2024/02/22 09:04:32;;;;;;;10.98;8.85;;;;;;;28.82;30.65;101857.25;10432458;28;20069;-89
2024/02/22 09:09:54;;;;;;;12.43;10.07;;;;;;;26.06;34.73;101855.59;10445379;28;20052;-90
2024/02/22 09:15:20;;;;;;;10.75;8.77;;;;;;;27.81;32.89;101849.56;10448510;28;20049;-90
2024/02/22 09:20:43;;;;;;;8.93;7.00;;;;;;;25.45;36.17;101850.22;10476945;28;20049;-89
2024/02/22 09:26:07;;;;;;;10.05;8.23;;;;;;;25.24;37.28;101849.91;10431056;28;20056;-87
2024/02/22 09:31:32;;;;;;;8.25;7.22;;;;;;;29.38;31.50;101845.75;10429405;28;20410;-84
2024/02/22 09:36:54;;;;;;;8.95;6.85;;;;;;;31.27;29.34;101847.28;10427394;28;20055;-84
2024/02/22 09:42:26;;;;;;;9.30;8.32;;;;;;;31.31;29.07;101849.88;10472709;28;20049;-83
2024/02/22 09:47:56;;;;;;;10.43;9.32;;;;;;;32.00;28.15;101837.81;10421225;28;20060;-90
2024/02/22 09:53:24;;;;;;;10.77;8.02;;;;;;;32.15;28.19;101830.63;10429454;28;20061;-88
2024/02/22 09:58:50;;;;;;;7.70;6.22;;;;;;;32.17;28.43;101838.69;10425821;28;20370;-87
2024/02/22 10:04:19;;;;;;;9.35;7.05;;;;;;;32.24;28.11;101824.59;10474453;28;20072;-86
2024/02/22 10:09:46;;;;;;;9.80;6.10;;;;;;;31.51;28.11;101815.03;10457601;28;20104;-86
2024/02/22 10:15:20;;;;;;;8.82;7.15;;;;;;;31.21;28.08;101813.97;10453347;28;20049;-87
2024/02/22 10:20:49;;;;;;;9.68;7.30;;;;;;;29.42;30.58;101807.44;10474796;28;20144;-84
2024/02/22 10:26:11;;;;;;;8.38;6.63;;;;;;;29.90;30.34;101803.38;10453893;28;20065;-87
2024/02/22 10:31:35;;;;;;;8.07;5.72;;;;;;;30.45;29.59;101802.44;10447536;28;20048;-87
2024/02/22 10:37:04;;;;;;;7.43;6.30;;;;;;;31.18;29.02;101803.22;10450349;28;20111;-86
2024/02/22 10:42:28;;;;;;;7.72;6.93;;;;;;;30.56;29.38;101793.75;10439593;28;20499;-87
2024/02/22 10:47:52;;;;;;;8.65;7.05;;;;;;;30.65;29.13;101792.41;10453738;28;20376;-88
2024/02/22 10:53:18;;;;;;;8.55;6.40;;;;;;;30.11;29.75;101772.38;10482767;28;20056;-86
2024/02/22 10:58:41;;;;;;;6.75;5.50;;;;;;;28.98;31.13;101771.34;10462296;28;20065;-86
2024/02/22 11:04:04;;;;;;;8.25;6.93;;;;;;;27.93;32.83;101772.19;10465340;28;20076;-85
2024/02/22 11:09:28;;;;;;;9.63;7.38;;;;;;;27.95;33.11;101770.31;10436262;28;20049;-84
2024/02/22 11:14:50;;;;;;;9.43;7.00;;;;;;;27.51;33.23;101767.47;10440580;28;20045;-83
2024/02/22 11:20:13;;;;;;;8.40;7.07;;;;;;;27.39;33.74;101767.94;10448893;28;20053;-81
2024/02/22 11:25:37;;;;;;;9.77;6.93;;;;;;;27.12;33.94;101753.59;10435948;28;20530;-81
2024/02/22 11:31:10;;;;;;;8.13;6.13;;;;;;;26.41;35.20;101754.31;10432002;28;20051;-83
2024/02/22 11:36:34;;;;;;;7.50;5.45;;;;;;;24.74;37.60;101750.38;10417645;28;20127;-84
2024/02/22 11:41:59;;;;;;;9.50;7.10;;;;;;;24.15;39.54;101747.41;10435940;28;20179;-84
2024/02/22 11:47:21;;;;;;;10.77;7.05;;;;;;;23.65;40.88;101740.47;10436129;28;20049;-82
2024/02/22 11:52:45;;;;;;;8.20;6.97;;;;;;;23.16;41.59;101738.84;10451526;28;20063;-81
2024/02/22 11:58:10;;;;;;;10.45;7.88;;;;;;;22.76;42.46;101730.66;10442478;28;20094;-81
2024/02/22 12:03:32;;;;;;;10.82;9.10;;;;;;;22.50;42.94;101722.16;10432676;28;20080;-76
2024/02/22 12:08:56;;;;;;;9.15;7.03;;;;;;;22.02;44.40;101721.19;10433107;28;20069;-84
2024/02/22 12:14:20;;;;;;;8.80;7.72;;;;;;;21.37;46.15;101715.84;10444147;28;20044;-77
2024/02/22 12:19:42;;;;;;;15.90;14.02;;;;;;;20.96;47.42;101705.59;10434198;28;20049;-77
2024/02/22 12:25:08;;;;;;;11.20;8.55;;;;;;;20.68;49.17;101710.38;10436997;28;20040;-85
2024/02/22 12:30:40;;;;;;;11.15;8.35;;;;;;;20.59;50.94;101715.84;10430752;28;20045;-82
2024/02/22 12:36:03;;;;;;;24.52;22.02;;;;;;;20.64;51.84;101707.75;10468681;28;20072;-79
2024/02/22 12:41:26;;;;;;;9.60;7.55;;;;;;;20.67;51.67;101705.06;10441142;28;20071;-80
2024/02/22 12:46:50;;;;;;;14.25;12.77;;;;;;;20.77;51.63;101698.66;10446011;28;20313;-82
2024/02/22 12:52:13;;;;;;;9.50;8.50;;;;;;;20.75;52.40;101699.56;10413263;28;20071;-82
2024/02/22 12:57:35;;;;;;;11.90;8.73;;;;;;;20.77;53.68;101695.97;10423883;28;20132;-86
2024/02/22 13:03:01;;;;;;;16.25;14.55;;;;;;;21.17;53.76;101704.47;10453959;28;20064;-84
2024/02/22 13:08:23;;;;;;;14.43;12.40;;;;;;;21.50;53.88;101687.00;10477797;28;20668;-84
2024/02/22 13:13:46;;;;;;;15.07;12.45;;;;;;;21.78;52.78;101690.16;10435284;28;20064;-84
2024/02/22 13:19:11;;;;;;;15.05;12.43;;;;;;;21.74;53.40;101691.09;10435448;28;20087;-84
2024/02/22 13:24:33;;;;;;;19.48;17.42;;;;;;;21.61;54.64;101679.66;10449152;28;20083;-83
2024/02/22 13:29:56;;;;;;;13.15;10.55;;;;;;;21.51;55.91;101683.41;10455539;28;20227;-83
2024/02/22 13:35:20;;;;;;;14.25;9.90;;;;;;;21.33;57.68;101679.16;10443654;28;20103;-82
2024/02/22 13:40:42;;;;;;;25.15;21.17;;;;;;;21.17;60.04;101683.00;10442438;28;20053;-81
2024/02/22 13:46:05;;;;;;;13.93;9.88;;;;;;;21.15;60.48;101675.81;10445582;28;20041;-81
2024/02/22 13:51:29;;;;;;;16.35;13.25;;;;;;;21.11;61.07;101674.09;10456255;28;20053;-81
2024/02/22 13:56:52;;;;;;;11.73;9.38;;;;;;;20.99;62.43;101678.72;10438920;28;20132;-81
2024/02/22 14:02:14;;;;;;;13.75;10.48;;;;;;;20.89;64.16;101676.13;10483394;28;20075;-81
2024/02/22 14:07:41;;;;;;;11.85;9.68;;;;;;;20.69;64.57;101673.69;10454829;28;20098;-81
2024/02/22 14:13:04;;;;;;;12.18;9.52;;;;;;;20.67;63.45;101684.47;10454945;28;20047;-79
2024/02/22 14:18:26;;;;;;;15.40;9.95;;;;;;;20.30;68.72;101686.59;10441868;28;20498;-83
2024/02/22 14:23:50;;;;;;;11.80;10.23;;;;;;;19.92;77.76;101686.03;10454584;28;20057;-81
2024/02/22 14:29:13;;;;;;;17.52;11.48;;;;;;;19.65;84.58;101689.81;10418977;28;20141;-79
2024/02/22 14:34:37;;;;;;;15.88;11.52;;;;;;;19.67;89.38;101679.09;10423831;28;20442;-81
2024/02/22 14:40:01;;;;;;;16.17;10.23;;;;;;;19.64;93.85;101677.31;10464453;28;20055;-77
2024/02/22 14:45:24;;;;;;;12.38;9.75;;;;;;;19.54;96.64;101675.63;10449203;28;20049;-77
2024/02/22 14:50:46;;;;;;;11.68;8.90;;;;;;;19.56;97.32;101672.94;10435395;28;20053;-78
2024/02/22 14:56:15;;;;;;;10.63;9.02;;;;;;;19.10;100.00;101673.13;10443471;28;20049;-78
2024/02/22 15:01:38;;;;;;;12.63;8.85;;;;;;;18.68;100.00;101683.13;10434474;28;20139;-76
2024/02/22 15:07:03;;;;;;;16.10;10.07;;;;;;;18.47;100.00;101675.13;10404779;28;20127;-84
2024/02/22 15:12:28;;;;;;;20.08;11.85;;;;;;;18.32;100.00;101677.81;10426035;28;20052;-81
2024/02/22 15:17:50;;;;;;;17.83;11.73;;;;;;;18.20;100.00;101678.72;10476815;28;20120;-79
2024/02/22 15:23:13;;;;;;;18.60;11.23;;;;;;;18.17;100.00;101686.75;10445473;28;20072;-83
2024/02/22 15:28:38;;;;;;;14.90;10.13;;;;;;;17.93;100.00;101678.72;10435713;28;20140;-85
2024/02/22 15:34:01;;;;;;;19.65;13.43;;;;;;;17.75;100.00;101686.72;10449712;28;20056;-81
2024/02/22 15:39:24;;;;;;;14.15;9.77;;;;;;;17.48;100.00;101695.56;10404456;28;20407;-82
2024/02/22 15:44:48;;;;;;;15.65;11.05;;;;;;;17.25;100.00;101702.63;10449079;28;20057;-74
2024/02/22 15:50:11;;;;;;;18.83;12.32;;;;;;;17.06;100.00;101694.56;10445910;28;20044;-78
2024/02/22 15:55:34;;;;;;;17.23;11.00;;;;;;;16.96;100.00;101699.81;10442035;28;20052;-78
2024/02/22 16:00:58;;;;;;;14.82;10.05;;;;;;;16.77;100.00;101703.28;10467880;28;20057;-79
2024/02/22 16:06:21;;;;;;;15.13;10.88;;;;;;;16.63;100.00;101709.44;10430305;28;20051;-80
2024/02/22 16:11:44;;;;;;;18.38;11.77;;;;;;;16.46;100.00;101718.19;10432842;28;20052;-78
2024/02/22 16:17:08;;;;;;;18.40;11.57;;;;;;;16.49;100.00;101727.06;10445120;28;20076;-82
2024/02/22 16:22:31;;;;;;;15.50;10.70;;;;;;;16.53;100.00;101734.22;10444094;28;20048;-77
2024/02/22 16:27:53;;;;;;;13.38;10.90;;;;;;;16.65;100.00;101738.78;10457544;28;20052;-76
2024/02/22 16:33:17;;;;;;;15.90;10.88;;;;;;;16.62;100.00;101734.31;10445820;28;20703;-78
2024/02/22 16:38:40;;;;;;;16.30;11.20;;;;;;;16.73;100.00;101742.41;10459791;28;20550;-76
2024/02/22 16:44:02;;;;;;;15.75;10.63;;;;;;;16.66;100.00;101737.91;10472963;28;20510;-75
2024/02/22 16:49:26;;;;;;;13.45;10.70;;;;;;;16.60;100.00;101757.41;10460027;28;20132;-78
2024/02/22 16:54:49;;;;;;;17.38;12.48;;;;;;;16.58;100.00;101761.81;10451066;28;20045;-77
2024/02/22 17:00:13;;;;;;;14.25;11.48;;;;;;;16.56;100.00;101773.34;10450305;28;20072;-75
2024/02/22 17:05:38;;;;;;;18.63;13.45;;;;;;;16.38;100.00;101779.41;10441266;28;20053;-81
2024/02/22 17:11:00;;;;;;;19.23;13.75;;;;;;;16.27;100.00;101790.00;10452825;28;20122;-81
2024/02/22 17:16:24;;;;;;;18.67;13.57;;;;;;;16.21;100.00;101797.91;10441288;28;20049;-77
2024/02/22 17:21:50;;;;;;;18.70;14.07;;;;;;;15.98;100.00;101796.81;10445470;28;20481;-78
2024/02/22 17:27:12;;;;;;;22.00;15.93;;;;;;;15.83;100.00;101800.19;10432161;28;20049;-82
2024/02/22 17:32:35;;;;;;;17.63;13.23;;;;;;;15.76;100.00;101801.00;10450752;28;20048;-80
2024/02/22 17:37:58;;;;;;;18.55;14.68;;;;;;;15.85;100.00;101814.44;10480354;28;20490;-78
2024/02/22 17:43:21;;;;;;;14.75;12.25;;;;;;;15.98;100.00;101814.56;10471566;28;20429;-78
2024/02/22 17:48:43;;;;;;;21.17;16.10;;;;;;;16.11;100.00;101813.81;10451147;28;20114;-77
2024/02/22 17:54:08;;;;;;;20.85;17.85;;;;;;;16.14;100.00;101808.53;10437636;28;20099;-78
2024/02/22 17:59:32;;;;;;;24.58;21.63;;;;;;;16.15;100.00;101807.63;10438055;28;20068;-79
2024/02/22 18:04:54;;;;;;;21.42;17.58;;;;;;;16.13;100.00;101812.06;10450538;28;20099;-79
2024/02/22 18:10:18;;;;;;;18.88;15.50;;;;;;;16.10;100.00;101806.69;10448481;28;20056;-82
2024/02/22 18:15:41;;;;;;;24.55;20.30;;;;;;;16.04;100.00;101807.53;10439183;28;20048;-85
2024/02/22 18:21:04;;;;;;;17.17;13.18;;;;;;;15.92;100.00;101800.31;10453288;28;20114;-79
2024/02/22 18:26:28;;;;;;;18.05;12.82;;;;;;;15.85;100.00;101803.78;10449764;28;20045;-76
2024/02/22 18:31:51;;;;;;;17.98;12.60;;;;;;;15.80;100.00;101801.94;10451250;28;20052;-75
2024/02/22 18:37:13;;;;;;;15.88;11.80;;;;;;;15.79;100.00;101792.16;10437332;28;20048;-83
2024/02/22 18:42:39;;;;;;;19.38;13.25;;;;;;;15.78;100.00;101798.38;10436017;28;20122;-78
2024/02/22 18:48:03;;;;;;;18.38;13.15;;;;;;;15.79;100.00;101798.41;10466129;28;20132;-78
2024/02/22 18:53:27;;;;;;;17.38;12.60;;;;;;;15.66;100.00;101801.78;10435355;28;20048;-78
2024/02/22 18:58:51;;;;;;;16.02;12.32;;;;;;;15.62;100.00;101807.06;10440407;28;20132;-79
2024/02/22 19:04:20;;;;;;;17.55;12.48;;;;;;;15.68;100.00;101801.81;10446072;28;20045;-78
2024/02/22 19:09:43;;;;;;;14.95;11.32;;;;;;;15.73;100.00;101806.31;10459700;28;20045;-79
2024/02/22 19:15:08;;;;;;;14.30;11.70;;;;;;;15.67;100.00;101808.00;10477821;28;20048;-77
2024/02/22 19:20:31;;;;;;;14.57;12.10;;;;;;;15.59;100.00;101802.59;10452551;28;20213;-78
2024/02/22 19:25:54;;;;;;;14.65;11.35;;;;;;;15.56;100.00;101809.66;10453889;28;20040;-79
2024/02/22 19:31:20;;;;;;;14.60;11.15;;;;;;;15.56;100.00;101807.88;10438449;28;20415;-79
2024/02/22 19:36:42;;;;;;;12.93;10.90;;;;;;;15.55;100.00;101819.41;10481299;28;20103;-81
2024/02/22 19:42:05;;;;;;;14.65;10.88;;;;;;;15.27;100.00;101815.47;10469815;28;20067;-78
2024/02/22 19:47:29;;;;;;;18.30;13.10;;;;;;;15.15;100.00;101829.50;10452553;28;20060;-78
2024/02/22 19:52:52;;;;;;;16.10;12.50;;;;;;;15.04;100.00;101825.78;10445839;28;20068;-78
2024/02/22 19:58:16;;;;;;;16.92;14.15;;;;;;;15.09;100.00;101828.53;10448084;28;20449;-79
2024/02/22 20:03:41;;;;;;;31.40;22.02;;;;;;;15.07;100.00;101835.56;10461906;28;20228;-78
2024/02/22 20:09:03;;;;;;;21.10;15.15;;;;;;;15.05;100.00;101829.34;10468358;28;20065;-78
2024/02/22 20:14:27;;;;;;;15.23;12.35;;;;;;;14.68;100.00;101818.16;10446257;28;20110;-79
2024/02/22 20:19:51;;;;;;;15.93;12.55;;;;;;;14.56;100.00;101822.38;10432498;28;20137;-79
2024/02/22 20:25:14;;;;;;;14.00;11.55;;;;;;;14.17;100.00;101806.63;10477556;28;20044;-80
2024/02/22 20:30:36;;;;;;;15.50;13.00;;;;;;;13.83;100.00;101805.13;10448202;28;20571;-77
2024/02/22 20:36:00;;;;;;;15.70;12.35;;;;;;;13.69;100.00;101793.34;10428899;28;20049;-77
2024/02/22 20:41:26;;;;;;;16.30;12.20;;;;;;;13.56;100.00;101795.75;10476245;28;20055;-78
2024/02/22 20:46:49;;;;;;;14.30;11.75;;;;;;;13.57;100.00;101792.25;10435336;28;20044;-78
2024/02/22 20:52:14;;;;;;;13.50;11.30;;;;;;;13.49;100.00;101799.13;10492913;28;20067;-78
2024/02/22 20:57:37;;;;;;;14.30;12.30;;;;;;;13.48;100.00;101789.38;10462719;28;20445;-78
2024/02/22 21:03:01;;;;;;;16.52;12.98;;;;;;;13.22;100.00;101784.41;10474567;28;20040;-79
2024/02/22 21:08:26;;;;;;;16.23;13.75;;;;;;;12.97;100.00;101788.25;10462441;28;20052;-79
2024/02/22 21:13:48;;;;;;;16.10;13.63;;;;;;;12.85;100.00;101772.09;10478892;28;20076;-79
2024/02/22 21:19:11;;;;;;;28.10;21.25;;;;;;;12.88;100.00;101773.03;10454665;28;20063;-79
2024/02/22 21:24:35;;;;;;;22.50;19.00;;;;;;;12.77;100.00;101761.31;10465604;28;20041;-79
2024/02/22 21:29:58;;;;;;;23.80;20.55;;;;;;;12.61;100.00;101760.03;10435827;28;20045;-79
2024/02/22 21:35:21;;;;;;;17.55;14.80;;;;;;;12.55;100.00;101764.31;10448426;28;20668;-80
2024/02/22 21:40:45;;;;;;;22.27;18.38;;;;;;;12.54;100.00;101762.50;10448090;28;20071;-80
2024/02/22 21:46:08;;;;;;;14.73;12.43;;;;;;;12.50;100.00;101756.25;10462379;28;20053;-80
2024/02/22 21:51:30;;;;;;;20.88;15.70;;;;;;;12.48;100.00;101759.72;10469951;28;20045;-79
2024/02/22 21:56:54;;;;;;;22.65;16.00;;;;;;;12.46;100.00;101759.72;10483115;28;20099;-80
2024/02/22 22:02:17;;;;;;;31.45;22.10;;;;;;;12.30;100.00;101763.72;10455458;28;20056;-79
2024/02/22 22:07:39;;;;;;;26.30;18.33;;;;;;;12.23;100.00;101750.28;10441973;28;20099;-80
2024/02/22 22:13:04;;;;;;;21.15;17.42;;;;;;;12.21;100.00;101757.28;10454306;28;20561;-80
2024/02/22 22:18:27;;;;;;;15.57;13.98;;;;;;;12.25;100.00;101749.47;10455373;28;20084;-80
2024/02/22 22:23:49;;;;;;;11.15;9.93;;;;;;;12.16;100.00;101757.19;10453866;28;20068;-79
2024/02/22 22:29:14;;;;;;;13.93;10.48;;;;;;;12.07;100.00;101756.06;10452145;28;20115;-79
2024/02/22 22:34:36;;;;;;;13.68;12.13;;;;;;;11.97;100.00;101761.13;10475718;28;20056;-79
2024/02/22 22:39:59;;;;;;;13.00;10.90;;;;;;;11.94;100.00;101760.16;10481310;28;20110;-79
2024/02/22 22:45:23;;;;;;;14.95;11.75;;;;;;;11.86;100.00;101759.06;10453140;28;20503;-79
2024/02/22 22:50:46;;;;;;;13.48;10.70;;;;;;;11.87;100.00;101763.50;10449315;28;20053;-79
2024/02/22 22:56:09;;;;;;;11.45;9.52;;;;;;;11.87;100.00;101760.84;10467405;28;20049;-78
2024/02/22 23:01:33;;;;;;;13.85;10.05;;;;;;;11.66;100.00;101753.19;10451337;28;20087;-79
2024/02/22 23:06:56;;;;;;;18.65;16.70;;;;;;;11.67;100.00;101752.34;10466849;28;20049;-80
2024/02/22 23:12:19;;;;;;;16.33;11.32;;;;;;;11.73;100.00;101746.31;10480092;28;20507;-79
2024/02/22 23:17:43;;;;;;;16.55;14.90;;;;;;;11.78;100.00;101732.41;10479991;28;20136;-78
2024/02/22 23:23:05;;;;;;;16.77;14.60;;;;;;;11.70;100.00;101727.72;10465179;28;20053;-79
2024/02/22 23:28:28;;;;;;;17.50;15.65;;;;;;;11.68;100.00;101721.50;10479365;28;20045;-79
2024/02/22 23:33:52;;;;;;;14.40;12.65;;;;;;;11.75;100.00;101727.00;10478701;28;20098;-79
2024/02/22 23:39:15;;;;;;;14.75;12.38;;;;;;;11.88;100.00;101739.69;10437133;28;20063;-80
2024/02/22 23:44:38;;;;;;;14.35;11.18;;;;;;;11.99;100.00;101745.28;10467019;28;20049;-79
2024/02/22 23:50:02;;;;;;;12.88;10.48;;;;;;;12.14;100.00;101743.00;10479150;28;20117;-79
2024/02/22 23:55:25;;;;;;;12.63;11.27;;;;;;;12.32;100.00;101737.28;10451076;28;20106;-79
